Time;durP1;ratioP1;P1;durP2;ratioP2;P2;SDS_P1;SDS_P2;PMS_P1;PMS_P2;Temp;Humidity;BMP_temperature;BMP_pressure;BME280_temperature;BME280_humidity;BME280_pressure;Samples;Min_cycle;Max_cycle;Signal;HPM_P1;HPM_P2
2023/12/24 00:00:09;;;;;;;2.88;1.40;;;;;;;4.26;100.00;99379.94;5112309;28;20078;-42
2023/12/24 00:02:37;;;;;;;2.13;1.30;;;;;;;4.30;100.00;99383.25;5112334;28;20048;-41
2023/12/24 00:05:06;;;;;;;1.75;1.17;;;;;;;4.30;100.00;99380.63;5108405;28;20093;-42
2023/12/24 00:07:37;;;;;;;3.03;1.20;;;;;;;4.31;100.00;99382.34;5091710;28;20052;-41
2023/12/24 00:10:07;;;;;;;2.38;1.30;;;;;;;4.35;100.00;99383.91;5109746;28;20172;-42
2023/12/24 00:12:38;;;;;;;2.33;1.20;;;;;;;4.38;100.00;99385.53;5112281;28;20050;-41
2023/12/24 00:15:07;;;;;;;2.35;1.13;;;;;;;4.35;100.00;99390.97;5112053;28;20054;-41
2023/12/24 00:17:36;;;;;;;2.35;1.15;;;;;;;4.44;100.00;99386.13;5112749;28;20058;-42
2023/12/24 00:20:06;;;;;;;1.75;1.02;;;;;;;4.45;100.00;99390.47;5115797;28;20113;-42
2023/12/24 00:22:37;;;;;;;1.80;1.00;;;;;;;4.44;100.00;99387.88;5114302;28;20043;-41
2023/12/24 00:25:06;;;;;;;2.00;0.93;;;;;;;4.46;100.00;99388.66;5102579;28;20458;-43
2023/12/24 00:27:35;;;;;;;1.58;1.10;;;;;;;4.46;100.00;99392.16;5092213;28;20048;-41
2023/12/24 00:30:04;;;;;;;1.27;0.98;;;;;;;4.49;100.00;99394.66;5091539;28;20051;-41
2023/12/24 00:32:32;;;;;;;2.92;1.50;;;;;;;4.44;100.00;99396.66;5091692;28;20044;-42
2023/12/24 00:35:00;;;;;;;3.25;2.00;;;;;;;4.22;100.00;99398.63;5091795;28;20048;-40
2023/12/24 00:37:29;;;;;;;3.78;2.00;;;;;;;4.30;100.00;99420.22;5092057;28;20048;-41
2023/12/24 00:39:58;;;;;;;3.25;1.98;;;;;;;4.27;100.00;99409.81;5092329;28;20058;-41
2023/12/24 00:42:27;;;;;;;4.88;2.15;;;;;;;4.06;100.00;99413.50;5106748;28;20044;-42
2023/12/24 00:44:55;;;;;;;4.35;2.65;;;;;;;4.11;100.00;99411.47;5112107;28;20044;-42
2023/12/24 00:47:23;;;;;;;4.75;2.30;;;;;;;4.09;100.00;99429.16;5111669;28;20135;-42
2023/12/24 00:49:52;;;;;;;5.57;2.55;;;;;;;4.03;100.00;99419.75;5096201;28;20408;-42
2023/12/24 00:52:21;;;;;;;4.15;2.70;;;;;;;4.11;100.00;99432.59;5112468;28;20058;-44
2023/12/24 00:54:49;;;;;;;5.07;2.60;;;;;;;4.01;100.00;99433.00;5112357;28;20043;-40
2023/12/24 00:57:20;;;;;;;4.47;2.55;;;;;;;4.08;100.00;99438.00;5115964;28;20483;-41
2023/12/24 00:59:48;;;;;;;5.65;2.72;;;;;;;4.07;100.00;99446.88;5109768;28;20404;-42
2023/12/24 01:02:17;;;;;;;5.15;2.63;;;;;;;4.01;100.00;99448.00;5095388;28;20036;-41
2023/12/24 01:04:46;;;;;;;4.45;2.70;;;;;;;4.08;100.00;99454.72;5094981;28;20044;-40
2023/12/24 01:07:14;;;;;;;3.83;2.45;;;;;;;4.05;100.00;99449.53;5094890;28;20052;-41
2023/12/24 01:09:44;;;;;;;5.05;3.17;;;;;;;3.97;100.00;99465.75;5111089;28;20054;-42
2023/12/24 01:12:13;;;;;;;4.93;3.30;;;;;;;3.80;100.00;99473.56;5115133;28;20100;-41
2023/12/24 01:14:43;;;;;;;5.70;3.33;;;;;;;3.82;100.00;99479.63;5114825;28;20429;-42
2023/12/24 01:17:11;;;;;;;6.13;3.88;;;;;;;3.76;100.00;99484.31;5097823;28;20140;-41
2023/12/24 01:19:39;;;;;;;7.03;3.78;;;;;;;3.66;100.00;99489.13;5093245;28;20418;-42
2023/12/24 01:22:08;;;;;;;6.32;4.35;;;;;;;3.80;100.00;99475.34;5098798;28;20189;-40
2023/12/24 01:24:36;;;;;;;8.07;4.40;;;;;;;3.82;100.00;99478.78;5104596;28;20118;-41
2023/12/24 01:27:05;;;;;;;7.47;4.50;;;;;;;3.70;100.00;99483.69;5095998;28;20044;-40
2023/12/24 01:29:33;;;;;;;5.95;4.07;;;;;;;3.84;100.00;99477.78;5100254;28;20051;-40
2023/12/24 01:32:03;;;;;;;5.60;3.58;;;;;;;3.90;100.00;99477.50;5100326;28;20489;-41
2023/12/24 01:34:31;;;;;;;7.53;4.30;;;;;;;3.94;100.00;99472.94;5095319;28;20048;-41
2023/12/24 01:36:59;;;;;;;8.75;4.03;;;;;;;3.99;100.00;99470.97;5094503;28;20048;-41
2023/12/24 01:39:28;;;;;;;6.35;3.40;;;;;;;3.93;100.00;99472.09;5094237;28;20052;-41
2023/12/24 01:41:56;;;;;;;5.75;3.72;;;;;;;3.97;100.00;99478.94;5107486;28;20039;-40
2023/12/24 01:44:25;;;;;;;5.70;3.47;;;;;;;4.07;100.00;99481.16;5114747;28;20039;-41
2023/12/24 01:46:53;;;;;;;6.75;3.92;;;;;;;4.05;100.00;99475.09;5106163;28;20461;-40
2023/12/24 01:49:23;;;;;;;6.00;3.40;;;;;;;4.00;100.00;99473.53;5103406;28;20051;-41
2023/12/24 01:51:52;;;;;;;4.97;3.25;;;;;;;4.10;100.00;99473.97;5114472;27;20047;-42
2023/12/24 01:54:20;;;;;;;5.55;3.60;;;;;;;4.02;100.00;99474.31;5114342;27;20124;-42
2023/12/24 01:56:49;;;;;;;5.35;3.30;;;;;;;4.09;100.00;99476.69;5102695;28;20389;-42
2023/12/24 01:59:18;;;;;;;5.10;3.50;;;;;;;4.19;100.00;99470.03;5109469;28;20516;-40
2023/12/24 02:01:47;;;;;;;5.60;3.60;;;;;;;4.13;100.00;99470.31;5114305;28;20240;-41
2023/12/24 02:04:17;;;;;;;5.05;3.50;;;;;;;4.11;100.00;99467.75;5114309;28;20039;-43
2023/12/24 02:06:47;;;;;;;5.65;3.22;;;;;;;4.11;100.00;99469.53;5113853;28;20044;-42
2023/12/24 02:09:15;;;;;;;5.97;3.50;;;;;;;4.17;100.00;99470.13;5114036;28;20079;-41
2023/12/24 02:11:44;;;;;;;5.50;3.30;;;;;;;4.19;100.00;99465.63;5103814;28;20044;-41
2023/12/24 02:14:13;;;;;;;4.80;3.30;;;;;;;4.22;100.00;99468.09;5093596;28;20048;-40
2023/12/24 02:16:44;;;;;;;4.82;3.28;;;;;;;4.26;100.00;99474.13;5096653;28;20039;-41
2023/12/24 02:19:19;;;;;;;4.82;3.13;;;;;;;4.24;100.00;99465.38;5103284;28;20047;-41
2023/12/24 02:21:49;;;;;;;5.13;3.10;;;;;;;4.27;100.00;99465.25;5093496;28;20044;-42
2023/12/24 02:24:18;;;;;;;5.03;3.30;;;;;;;4.24;100.00;99471.53;5093773;28;20444;-41
2023/12/24 02:26:52;;;;;;;4.93;3.05;;;;;;;4.26;100.00;99479.41;5093251;28;20404;-41
2023/12/24 02:29:27;;;;;;;4.28;2.65;;;;;;;4.30;100.00;99473.03;5104746;28;20432;-40
2023/12/24 02:32:06;;;;;;;4.63;2.80;;;;;;;4.26;100.00;99468.84;5113703;28;20040;-41
2023/12/24 02:34:36;;;;;;;4.80;2.88;;;;;;;4.28;100.00;99469.63;5113832;28;20039;-40
2023/12/24 02:37:07;;;;;;;4.57;2.80;;;;;;;4.23;100.00;99463.69;5109420;28;20555;-41
2023/12/24 02:39:37;;;;;;;4.90;3.30;;;;;;;4.18;100.00;99471.81;5093153;28;20138;-41
2023/12/24 02:42:07;;;;;;;5.10;3.17;;;;;;;4.19;100.00;99473.53;5093189;28;20052;-41
2023/12/24 02:44:36;;;;;;;5.32;3.38;;;;;;;4.23;100.00;99479.50;5102354;28;20085;-41
2023/12/24 02:47:05;;;;;;;5.35;3.42;;;;;;;4.31;100.00;99474.75;5093063;28;20055;-40
2023/12/24 02:49:34;;;;;;;5.82;3.60;;;;;;;4.06;100.00;99482.97;5106694;28;20054;-41
2023/12/24 02:52:02;;;;;;;5.53;3.38;;;;;;;4.14;100.00;99479.94;5113467;27;20043;-41
2023/12/24 02:54:32;;;;;;;5.10;3.50;;;;;;;4.18;100.00;99482.38;5113158;28;20059;-40
2023/12/24 02:57:00;;;;;;;5.78;4.13;;;;;;;4.18;100.00;99474.47;5108456;28;20043;-43
2023/12/24 02:59:28;;;;;;;6.90;4.22;;;;;;;4.12;100.00;99471.25;5092494;28;20629;-41
2023/12/24 03:01:56;;;;;;;6.20;4.00;;;;;;;4.18;100.00;99476.25;5092817;28;20127;-40
2023/12/24 03:04:25;;;;;;;5.45;3.70;;;;;;;4.12;100.00;99479.16;5092671;28;20055;-40
2023/12/24 03:06:53;;;;;;;5.38;3.53;;;;;;;4.11;100.00;99474.81;5100076;28;20131;-43
2023/12/24 03:09:21;;;;;;;5.75;3.80;;;;;;;4.16;100.00;99480.75;5112638;28;20172;-41
2023/12/24 03:11:51;;;;;;;5.68;3.67;;;;;;;4.23;100.00;99474.22;5112677;28;20071;-41
2023/12/24 03:14:20;;;;;;;5.32;3.50;;;;;;;4.30;100.00;99483.59;5112604;28;20059;-39
2023/12/24 03:16:49;;;;;;;5.88;3.80;;;;;;;4.04;100.00;99479.50;5112958;28;20669;-43
2023/12/24 03:19:17;;;;;;;6.53;4.18;;;;;;;3.94;100.00;99479.06;5112077;27;20043;-44
2023/12/24 03:21:46;;;;;;;6.45;4.22;;;;;;;4.08;100.00;99482.88;5106034;28;20044;-41
2023/12/24 03:24:14;;;;;;;7.18;4.10;;;;;;;4.07;100.00;99478.53;5092371;28;20054;-42
2023/12/24 03:26:42;;;;;;;7.32;4.63;;;;;;;4.16;100.00;99475.47;5092137;28;20165;-41
2023/12/24 03:29:13;;;;;;;6.57;4.10;;;;;;;4.20;100.00;99474.38;5092423;28;20165;-41
2023/12/24 03:31:41;;;;;;;6.10;4.20;;;;;;;4.30;100.00;99470.38;5092356;28;20040;-41
2023/12/24 03:34:10;;;;;;;6.80;4.13;;;;;;;4.31;100.00;99470.31;5092184;28;20385;-41
2023/12/24 03:36:39;;;;;;;7.00;4.40;;;;;;;4.31;100.00;99478.22;5102414;28;20044;-40
2023/12/24 03:39:07;;;;;;;6.70;4.30;;;;;;;4.38;100.00;99473.53;5112692;28;20051;-41
2023/12/24 03:41:35;;;;;;;6.05;4.15;;;;;;;4.34;100.00;99471.94;5112303;28;20484;-40
2023/12/24 03:44:03;;;;;;;6.93;4.68;;;;;;;4.34;100.00;99477.22;5106753;28;20047;-40
2023/12/24 03:46:33;;;;;;;6.93;4.57;;;;;;;4.30;100.00;99486.22;5092007;28;20088;-42
2023/12/24 03:49:02;;;;;;;7.03;4.78;;;;;;;3.91;100.00;99481.00;5100530;28;20039;-42
2023/12/24 03:51:29;;;;;;;6.95;4.45;;;;;;;3.86;100.00;99477.69;5112209;28;20043;-41
2023/12/24 03:53:58;;;;;;;7.55;4.65;;;;;;;3.96;100.00;99479.03;5111540;28;20448;-40
2023/12/24 03:56:26;;;;;;;8.07;4.78;;;;;;;4.09;100.00;99487.22;5093411;28;20134;-41
2023/12/24 03:58:54;;;;;;;7.50;4.55;;;;;;;4.09;100.00;99492.50;5111970;28;20048;-41
2023/12/24 04:01:25;;;;;;;7.55;4.30;;;;;;;3.95;100.00;99493.13;5111936;28;20056;-41
2023/12/24 04:03:56;;;;;;;7.07;4.57;;;;;;;4.02;100.00;99484.84;5112006;27;20063;-41
2023/12/24 04:06:24;;;;;;;7.70;4.72;;;;;;;4.08;100.00;99475.81;5111829;28;20051;-40
2023/12/24 04:08:53;;;;;;;7.53;4.18;;;;;;;4.15;100.00;99471.09;5110626;28;20055;-41
2023/12/24 04:11:21;;;;;;;9.38;4.65;;;;;;;4.25;100.00;99467.97;5091587;28;20084;-42
2023/12/24 04:13:49;;;;;;;8.18;5.25;;;;;;;4.29;100.00;99468.69;5098388;28;20039;-41
2023/12/24 04:16:18;;;;;;;7.30;4.90;;;;;;;4.23;100.00;99468.97;5111762;28;20125;-40
2023/12/24 04:18:46;;;;;;;8.77;4.95;;;;;;;4.20;100.00;99466.47;5105022;28;20127;-42
2023/12/24 04:21:17;;;;;;;8.02;5.50;;;;;;;4.18;100.00;99470.97;5091588;28;20054;-41
2023/12/24 04:23:45;;;;;;;9.27;5.88;;;;;;;3.95;100.00;99475.50;5091649;28;20048;-41
2023/12/24 04:26:13;;;;;;;9.48;6.05;;;;;;;4.01;100.00;99464.69;5097376;28;20112;-42
2023/12/24 04:28:42;;;;;;;8.75;5.90;;;;;;;4.15;100.00;99455.25;5111711;28;20400;-42
2023/12/24 04:31:10;;;;;;;9.43;5.75;;;;;;;4.23;100.00;99458.41;5104758;28;20047;-42
2023/12/24 04:33:38;;;;;;;9.63;6.30;;;;;;;4.26;100.00;99450.34;5107590;28;20047;-42
2023/12/24 04:36:08;;;;;;;9.88;6.35;;;;;;;4.30;100.00;99454.56;5116211;28;20089;-40
2023/12/24 04:38:38;;;;;;;9.90;6.65;;;;;;;4.26;100.00;99459.13;5116020;28;20135;-40
2023/12/24 04:41:07;;;;;;;9.38;5.53;;;;;;;4.28;100.00;99445.84;5115762;28;20055;-40
2023/12/24 04:43:35;;;;;;;9.93;6.55;;;;;;;4.34;100.00;99450.81;5095789;28;20085;-44
2023/12/24 04:46:04;;;;;;;10.80;6.07;;;;;;;4.30;100.00;99446.63;5112265;28;20043;-40
2023/12/24 04:48:32;;;;;;;9.77;5.80;;;;;;;4.36;100.00;99453.41;5103249;28;20052;-41
2023/12/24 04:51:04;;;;;;;10.57;6.22;;;;;;;4.26;100.00;99445.06;5095690;28;20088;-42
2023/12/24 04:53:32;;;;;;;11.38;6.78;;;;;;;4.14;100.00;99445.63;5095229;28;20128;-41
2023/12/24 04:56:02;;;;;;;10.95;6.75;;;;;;;3.78;100.00;99456.09;5112936;28;20057;-42
2023/12/24 04:58:30;;;;;;;11.30;7.03;;;;;;;3.87;100.00;99453.06;5115481;28;20039;-41
2023/12/24 05:00:59;;;;;;;10.55;7.10;;;;;;;4.01;100.00;99438.28;5115604;28;20081;-40
2023/12/24 05:03:27;;;;;;;10.57;6.68;;;;;;;4.08;100.00;99438.88;5097216;28;20139;-40
2023/12/24 05:05:57;;;;;;;12.57;7.63;;;;;;;4.22;100.00;99430.28;5095069;28;20070;-41
2023/12/24 05:08:25;;;;;;;10.05;6.75;;;;;;;4.25;100.00;99440.72;5094959;28;20155;-41
2023/12/24 05:10:54;;;;;;;11.18;6.63;;;;;;;4.38;100.00;99436.56;5094904;28;20560;-41
2023/12/24 05:13:24;;;;;;;10.90;6.78;;;;;;;4.43;100.00;99439.81;5095030;28;20048;-41
2023/12/24 05:15:53;;;;;;;10.30;6.70;;;;;;;4.35;100.00;99442.00;5095235;28;20040;-42
2023/12/24 05:18:21;;;;;;;12.75;7.57;;;;;;;4.25;100.00;99448.66;5105173;28;20098;-41
2023/12/24 05:20:49;;;;;;;13.20;7.25;;;;;;;4.02;100.00;99439.13;5115147;28;20055;-41
2023/12/24 05:23:20;;;;;;;12.07;7.35;;;;;;;3.95;100.00;99457.03;5115342;28;20067;-41
2023/12/24 05:25:49;;;;;;;12.52;7.65;;;;;;;3.79;100.00;99469.22;5099062;27;20052;-41
2023/12/24 05:28:17;;;;;;;14.90;7.90;;;;;;;3.94;100.00;99457.09;5095048;28;20044;-42
2023/12/24 05:30:48;;;;;;;13.45;7.70;;;;;;;3.95;100.00;99454.38;5098241;28;20046;-43
2023/12/24 05:33:16;;;;;;;13.13;7.75;;;;;;;4.06;100.00;99451.28;5099401;28;20104;-44
2023/12/24 05:35:45;;;;;;;13.77;8.48;;;;;;;3.98;100.00;99458.69;5103195;28;20043;-42
2023/12/24 05:38:14;;;;;;;12.68;7.80;;;;;;;3.93;100.00;99466.81;5114780;28;20059;-42
2023/12/24 05:40:42;;;;;;;14.52;8.88;;;;;;;3.77;100.00;99460.53;5114589;28;20047;-40
2023/12/24 05:43:11;;;;;;;13.32;8.05;;;;;;;3.94;100.00;99462.38;5097148;28;20161;-42
2023/12/24 05:45:39;;;;;;;13.55;8.32;;;;;;;4.00;100.00;99462.97;5114773;28;20464;-43
2023/12/24 05:48:09;;;;;;;12.02;8.13;;;;;;;3.82;100.00;99461.16;5114759;28;20050;-44
2023/12/24 05:50:37;;;;;;;13.57;7.80;;;;;;;4.00;100.00;99472.66;5114551;28;20086;-41
2023/12/24 05:53:06;;;;;;;13.80;8.00;;;;;;;4.11;100.00;99472.16;5114473;28;20087;-42
2023/12/24 05:55:34;;;;;;;11.43;6.97;;;;;;;4.16;100.00;99464.91;5105759;28;20044;-39
2023/12/24 05:58:03;;;;;;;11.50;7.22;;;;;;;4.23;100.00;99463.69;5085076;28;20044;-41
2023/12/24 06:00:32;;;;;;;12.23;7.57;;;;;;;4.17;100.00;99463.97;5093937;28;20101;-41
2023/12/24 06:03:04;;;;;;;11.18;7.07;;;;;;;4.28;100.00;99470.47;5094170;28;20048;-41
2023/12/24 06:05:34;;;;;;;12.45;7.20;;;;;;;4.19;100.00;99465.63;5112197;28;20855;-43
2023/12/24 06:08:03;;;;;;;10.63;6.88;;;;;;;4.38;100.00;99478.81;5114435;28;20043;-42
2023/12/24 06:10:31;;;;;;;11.77;6.95;;;;;;;4.51;100.00;99476.44;5100386;28;20044;-41
2023/12/24 06:12:59;;;;;;;11.05;6.45;;;;;;;4.55;100.00;99470.94;5093613;28;20047;-41
2023/12/24 06:15:28;;;;;;;12.45;6.95;;;;;;;4.70;100.00;99461.41;5073371;28;20493;-41
2023/12/24 06:17:56;;;;;;;9.45;5.68;;;;;;;4.72;100.00;99466.63;5073732;28;20053;-42
2023/12/24 06:20:25;;;;;;;9.90;6.15;;;;;;;4.74;100.00;99454.22;5073266;28;20098;-40
2023/12/24 06:22:54;;;;;;;10.55;6.22;;;;;;;4.82;100.00;99467.88;5073036;28;20049;-41
2023/12/24 06:25:23;;;;;;;9.18;5.93;;;;;;;4.75;100.00;99467.34;5111977;28;20051;-41
2023/12/24 06:27:52;;;;;;;8.40;5.40;;;;;;;4.80;100.00;99467.09;5113495;28;20165;-40
2023/12/24 06:30:20;;;;;;;9.98;6.43;;;;;;;4.83;100.00;99459.91;5095491;28;20048;-42
2023/12/24 06:32:48;;;;;;;10.32;6.43;;;;;;;4.94;100.00;99466.44;5092990;28;20044;-43
2023/12/24 06:35:18;;;;;;;9.95;5.68;;;;;;;4.93;100.00;99468.22;5093312;28;20044;-41
2023/12/24 06:37:46;;;;;;;10.80;5.82;;;;;;;4.89;100.00;99464.88;5092889;28;20081;-43
2023/12/24 06:40:16;;;;;;;9.43;5.93;;;;;;;5.06;100.00;99476.41;5097591;28;20074;-40
2023/12/24 06:42:44;;;;;;;9.43;5.15;;;;;;;5.21;100.00;99466.81;5113045;28;20464;-43
2023/12/24 06:45:13;;;;;;;7.65;4.70;;;;;;;5.29;100.00;99473.44;5112978;28;20126;-42
2023/12/24 06:47:41;;;;;;;6.53;3.53;;;;;;;5.40;100.00;99468.47;5113116;28;20583;-41
2023/12/24 06:50:10;;;;;;;5.93;3.10;;;;;;;5.55;100.00;99476.53;5103464;28;20051;-40
2023/12/24 06:52:38;;;;;;;5.32;2.20;;;;;;;5.63;100.00;99480.50;5112224;28;20399;-41
2023/12/24 06:55:08;;;;;;;4.18;2.50;;;;;;;5.67;100.00;99475.91;5113007;28;20124;-40
2023/12/24 06:57:37;;;;;;;4.18;2.10;;;;;;;5.78;100.00;99475.34;5113026;28;20050;-39
2023/12/24 07:00:07;;;;;;;2.95;1.80;;;;;;;5.83;100.00;99483.91;5113500;28;20403;-40
2023/12/24 07:02:35;;;;;;;2.90;1.60;;;;;;;5.87;100.00;99480.13;5113237;28;20096;-41
2023/12/24 07:05:04;;;;;;;5.15;2.10;;;;;;;5.92;100.00;99483.44;5113302;28;20047;-40
2023/12/24 07:07:33;;;;;;;3.40;1.85;;;;;;;6.07;100.00;99487.91;5096187;27;20447;-40
2023/12/24 07:10:02;;;;;;;4.80;2.15;;;;;;;6.12;100.00;99485.88;5112397;28;20086;-41
2023/12/24 07:12:31;;;;;;;4.65;1.80;;;;;;;6.25;100.00;99492.19;5112960;28;20112;-41
2023/12/24 07:15:04;;;;;;;2.15;1.35;;;;;;;6.37;100.00;99497.75;5110053;28;20047;-41
2023/12/24 07:17:33;;;;;;;2.45;1.20;;;;;;;6.42;100.00;99498.38;5092770;28;20039;-41
2023/12/24 07:20:01;;;;;;;3.88;1.38;;;;;;;6.52;100.00;99505.72;5092747;28;20044;-41
2023/12/24 07:22:30;;;;;;;2.75;1.30;;;;;;;6.63;100.00;99507.78;5093635;28;20138;-42
2023/12/24 07:24:58;;;;;;;2.45;1.35;;;;;;;6.70;100.00;99500.34;5103861;28;20122;-41
2023/12/24 07:27:26;;;;;;;2.05;1.05;;;;;;;6.79;100.00;99503.34;5108706;28;20420;-40
2023/12/24 07:29:56;;;;;;;4.35;1.30;;;;;;;6.87;100.00;99503.78;5113013;28;20126;-41
2023/12/24 07:32:25;;;;;;;2.17;1.30;;;;;;;6.93;100.00;99512.31;5112512;28;20047;-41
2023/12/24 07:34:56;;;;;;;2.25;1.20;;;;;;;6.92;100.00;99498.19;5102559;28;20428;-41
2023/12/24 07:37:24;;;;;;;2.03;0.90;;;;;;;7.01;100.00;99499.47;5094920;28;20040;-40
2023/12/24 07:39:52;;;;;;;3.33;0.90;;;;;;;6.98;100.00;99507.59;5113310;28;20044;-41
2023/12/24 07:42:22;;;;;;;3.25;1.10;;;;;;;7.11;100.00;99495.34;5113235;28;20477;-46
2023/12/24 07:44:51;;;;;;;1.75;0.90;;;;;;;7.23;100.00;99502.56;5113108;28;20431;-42
2023/12/24 07:47:19;;;;;;;1.80;0.90;;;;;;;7.29;100.00;99512.00;5093597;28;20040;-41
2023/12/24 07:49:49;;;;;;;2.10;1.00;;;;;;;7.35;100.00;99507.19;5095497;28;20392;-43
2023/12/24 07:52:18;;;;;;;2.55;1.10;;;;;;;7.37;100.00;99510.59;5106201;28;20048;-42
2023/12/24 07:54:46;;;;;;;1.60;0.75;;;;;;;7.41;100.00;99517.41;5097089;28;20039;-41
2023/12/24 07:57:14;;;;;;;2.88;0.95;;;;;;;7.44;100.00;99511.94;5098993;28;20046;-44
2023/12/24 07:59:43;;;;;;;3.00;1.08;;;;;;;7.55;100.00;99521.94;5099557;28;20062;-42
2023/12/24 08:02:11;;;;;;;3.00;1.20;;;;;;;7.61;100.00;99531.31;5099052;28;20044;-41
2023/12/24 08:04:40;;;;;;;1.90;0.90;;;;;;;7.71;100.00;99546.59;5091589;28;20089;-41
2023/12/24 08:07:09;;;;;;;2.45;0.98;;;;;;;7.78;100.00;99535.63;5105848;28;20439;-41
2023/12/24 08:09:38;;;;;;;2.38;1.05;;;;;;;7.85;100.00;99543.13;5092614;28;20424;-41
2023/12/24 08:12:07;;;;;;;2.25;0.88;;;;;;;7.84;100.00;99551.19;5093258;28;20087;-41
2023/12/24 08:14:35;;;;;;;1.88;0.95;;;;;;;7.85;100.00;99548.44;5112204;28;20040;-42
2023/12/24 08:17:04;;;;;;;0.98;0.73;;;;;;;7.88;100.00;99550.91;5111583;28;20083;-41
2023/12/24 08:19:32;;;;;;;1.48;0.85;;;;;;;7.88;100.00;99555.38;5094968;28;20051;-41
2023/12/24 08:22:01;;;;;;;1.77;0.80;;;;;;;7.97;100.00;99557.47;5098466;28;21302;-40
2023/12/24 08:24:31;;;;;;;2.65;1.00;;;;;;;7.94;100.00;99557.66;5099071;28;20108;-40
2023/12/24 08:26:59;;;;;;;3.40;1.00;;;;;;;8.01;100.00;99557.22;5096516;28;20062;-41
2023/12/24 08:29:31;;;;;;;2.55;0.90;;;;;;;8.05;100.00;99563.16;5102740;28;20439;-40
2023/12/24 08:32:01;;;;;;;2.13;0.93;;;;;;;8.10;100.00;99562.88;5092505;28;20164;-42
2023/12/24 08:34:29;;;;;;;2.28;1.02;;;;;;;8.03;100.00;99565.06;5091532;28;20058;-41
2023/12/24 08:36:57;;;;;;;3.08;1.30;;;;;;;8.07;100.00;99569.25;5096226;28;20046;-41
2023/12/24 08:39:26;;;;;;;2.75;1.23;;;;;;;8.14;100.00;99575.03;5095999;28;20044;-43
2023/12/24 08:41:56;;;;;;;3.47;1.17;;;;;;;8.15;100.00;99582.06;5095264;28;20055;-42
2023/12/24 08:44:28;;;;;;;1.83;1.05;;;;;;;8.23;100.00;99585.13;5096325;28;20154;-41
2023/12/24 08:46:56;;;;;;;5.10;1.20;;;;;;;8.24;100.00;99598.28;5097109;28;20072;-41
2023/12/24 08:49:24;;;;;;;3.42;1.40;;;;;;;8.26;100.00;99592.88;5095569;28;20047;-41
2023/12/24 08:51:53;;;;;;;1.75;0.90;;;;;;;8.28;100.00;99606.91;5096192;28;20389;-44
2023/12/24 08:54:23;;;;;;;1.85;1.00;;;;;;;8.30;100.00;99611.22;5100612;28;20043;-42
2023/12/24 08:56:52;;;;;;;4.82;1.60;;;;;;;8.29;100.00;99611.28;5110875;28;20477;-41
2023/12/24 08:59:21;;;;;;;2.80;1.48;;;;;;;8.23;100.00;99617.84;5111568;28;20097;-42
2023/12/24 09:01:50;;;;;;;4.25;1.30;;;;;;;8.23;100.00;99611.69;5097529;28;20044;-42
2023/12/24 09:04:18;;;;;;;3.15;1.60;;;;;;;8.23;100.00;99619.66;5091088;28;20044;-42
2023/12/24 09:06:46;;;;;;;2.15;1.15;;;;;;;8.17;100.00;99612.88;5091956;28;20044;-41
2023/12/24 09:09:15;;;;;;;3.10;1.40;;;;;;;8.25;100.00;99610.63;5092723;28;20097;-42
2023/12/24 09:11:43;;;;;;;3.22;1.50;;;;;;;8.31;100.00;99604.94;5110779;28;20489;-41
2023/12/24 09:14:11;;;;;;;2.83;1.65;;;;;;;8.35;100.00;99616.28;5098145;28;20044;-42
2023/12/24 09:16:41;;;;;;;3.72;1.75;;;;;;;8.39;100.00;99591.19;5105536;28;20510;-42
2023/12/24 09:19:10;;;;;;;2.70;1.40;;;;;;;8.42;100.00;99599.00;5101811;28;20508;-44
2023/12/24 09:21:39;;;;;;;3.35;1.60;;;;;;;8.43;100.00;99595.41;5100378;28;20075;-41
2023/12/24 09:24:08;;;;;;;3.42;1.60;;;;;;;8.50;100.00;99599.41;5105900;28;20054;-42
2023/12/24 09:26:36;;;;;;;4.45;1.73;;;;;;;8.53;100.00;99593.03;5106254;28;20090;-42
2023/12/24 09:29:05;;;;;;;2.65;1.50;;;;;;;8.56;100.00;99599.00;5098413;28;20048;-42
2023/12/24 09:31:33;;;;;;;2.70;1.50;;;;;;;8.56;100.00;99604.31;5097220;28;20519;-43
2023/12/24 09:34:03;;;;;;;4.35;1.55;;;;;;;8.60;100.00;99597.88;5104055;28;20084;-43
2023/12/24 09:36:31;;;;;;;5.10;2.47;;;;;;;8.63;100.00;99604.78;5095742;28;20050;-41
2023/12/24 09:38:59;;;;;;;4.10;2.05;;;;;;;8.69;100.00;99606.22;5093578;28;20048;-42
2023/12/24 09:41:28;;;;;;;2.78;1.60;;;;;;;8.66;100.00;99609.91;5092946;28;20135;-41
2023/12/24 09:43:56;;;;;;;4.32;1.67;;;;;;;8.68;100.00;99612.47;5094306;28;20052;-42
2023/12/24 09:46:24;;;;;;;5.78;2.60;;;;;;;8.71;100.00;99614.97;5094438;28;20445;-42
2023/12/24 09:48:53;;;;;;;5.55;1.90;;;;;;;8.68;100.00;99618.63;5094869;28;20068;-44
2023/12/24 09:51:26;;;;;;;3.33;1.70;;;;;;;8.60;100.00;99616.47;5094654;28;20048;-44
2023/12/24 09:53:56;;;;;;;2.17;1.40;;;;;;;8.65;100.00;99615.31;5094746;28;20044;-43
2023/12/24 09:56:24;;;;;;;3.40;1.48;;;;;;;8.72;100.00;99616.66;5094353;28;20044;-43
2023/12/24 09:58:52;;;;;;;3.45;1.73;;;;;;;8.71;100.00;99609.63;5094134;28;20074;-42
2023/12/24 10:01:22;;;;;;;2.97;1.60;;;;;;;8.76;100.00;99602.22;5093866;28;20048;-43
2023/12/24 10:03:51;;;;;;;3.83;1.50;;;;;;;8.70;100.00;99602.63;5093659;28;20052;-43
2023/12/24 10:06:21;;;;;;;3.63;1.70;;;;;;;8.74;100.00;99601.47;5093684;28;20127;-42
2023/12/24 10:08:55;;;;;;;2.45;1.38;;;;;;;8.81;100.00;99610.78;5093579;28;20040;-44
2023/12/24 10:11:24;;;;;;;2.13;1.17;;;;;;;8.84;100.00;99603.44;5094112;28;20048;-43
2023/12/24 10:13:59;;;;;;;3.20;1.60;;;;;;;8.89;100.00;99595.19;5093758;28;20146;-43
2023/12/24 10:16:28;;;;;;;3.17;1.50;;;;;;;9.01;100.00;99601.53;5093727;28;20040;-42
2023/12/24 10:18:58;;;;;;;3.47;1.45;;;;;;;8.96;100.00;99599.13;5093618;28;20048;-42
2023/12/24 10:21:27;;;;;;;2.83;1.30;;;;;;;9.08;100.00;99603.69;5093627;28;20079;-43
2023/12/24 10:24:04;;;;;;;2.80;1.30;;;;;;;9.06;100.00;99608.25;5093744;28;20048;-43
2023/12/24 10:26:33;;;;;;;2.60;1.20;;;;;;;9.14;100.00;99603.28;5093330;28;20055;-44
2023/12/24 10:29:01;;;;;;;5.00;1.60;;;;;;;9.17;100.00;99615.56;5093025;28;20092;-43
2023/12/24 10:31:50;;;;;;;3.67;1.50;;;;;;;9.23;100.00;99604.50;5093212;28;20055;-41
2023/12/24 10:34:19;;;;;;;4.78;1.30;;;;;;;9.26;100.00;99604.28;5091953;28;20048;-44
2023/12/24 10:36:48;;;;;;;2.58;1.27;;;;;;;9.22;100.00;99597.47;5093684;28;20134;-42
2023/12/24 10:39:24;;;;;;;5.15;1.70;;;;;;;9.28;100.00;99589.09;5093241;28;20052;-44
2023/12/24 10:41:55;;;;;;;4.40;1.52;;;;;;;9.24;100.00;99590.22;5093499;28;20137;-43
2023/12/24 10:44:24;;;;;;;1.90;1.00;;;;;;;9.28;100.00;99589.09;5093512;28;20135;-43
2023/12/24 10:46:53;;;;;;;2.03;1.05;;;;;;;9.42;100.00;99598.84;5092810;28;20490;-44
2023/12/24 10:49:21;;;;;;;1.88;0.80;;;;;;;9.40;100.00;99598.94;5093035;28;20044;-43
2023/12/24 10:51:50;;;;;;;2.08;1.00;;;;;;;9.48;100.00;99592.25;5093082;28;20052;-43
2023/12/24 10:54:19;;;;;;;2.20;0.90;;;;;;;9.60;100.00;99592.28;5092797;28;20051;-42
2023/12/24 10:57:01;;;;;;;2.00;0.98;;;;;;;9.63;100.00;99592.06;5092941;28;20066;-43
2023/12/24 11:00:03;;;;;;;1.88;0.90;;;;;;;9.64;100.00;99598.25;5092737;28;20120;-42
2023/12/24 11:02:32;;;;;;;1.55;0.68;;;;;;;9.59;100.00;99576.44;5093107;28;20048;-42
2023/12/24 11:05:01;;;;;;;3.13;0.80;;;;;;;9.57;100.00;99571.22;5093062;28;20077;-42
2023/12/24 11:07:49;;;;;;;2.53;1.00;;;;;;;9.58;100.00;99564.06;5092905;28;20093;-42
2023/12/24 11:10:42;;;;;;;1.45;0.70;;;;;;;9.72;100.00;99564.84;5092793;28;20135;-44
2023/12/24 11:13:32;;;;;;;1.55;0.57;;;;;;;9.62;100.00;99550.44;5092766;28;20085;-46
2023/12/24 11:16:02;;;;;;;0.77;0.50;;;;;;;9.63;100.00;99544.16;5092399;28;20051;-42
2023/12/24 11:18:41;;;;;;;2.35;1.08;;;;;;;9.54;100.00;99527.94;5092589;28;20074;-48
2023/12/24 11:21:11;;;;;;;1.38;0.68;;;;;;;9.67;100.00;99524.38;5092096;28;20181;-42
2023/12/24 11:23:41;;;;;;;4.25;1.33;;;;;;;9.68;100.00;99538.53;5092140;28;20381;-44
2023/12/24 11:26:32;;;;;;;2.40;1.10;;;;;;;9.68;100.00;99536.72;5091940;28;20063;-43
2023/12/24 11:29:03;;;;;;;2.38;1.00;;;;;;;9.76;100.00;99530.88;5092075;28;20048;-44
2023/12/24 11:31:32;;;;;;;2.83;0.80;;;;;;;9.74;100.00;99530.09;5091935;28;20048;-43
2023/12/24 11:34:00;;;;;;;1.30;0.77;;;;;;;9.78;100.00;99523.63;5091759;28;20485;-42
2023/12/24 11:36:29;;;;;;;2.53;1.15;;;;;;;9.80;100.00;99534.16;5091926;28;20051;-43
2023/12/24 11:38:59;;;;;;;2.72;1.05;;;;;;;9.83;100.00;99518.81;5091374;28;20047;-43
2023/12/24 11:41:28;;;;;;;3.28;0.88;;;;;;;9.89;100.00;99515.75;5091830;28;20044;-43